Time;durP1;ratioP1;P1;durP2;ratioP2;P2;SDS_P1;SDS_P2;PMS_P1;PMS_P2;Temp;Humidity;BMP_temperature;BMP_pressure;BME280_temperature;BME280_humidity;BME280_pressure;Samples;Min_cycle;Max_cycle;Signal;HPM_P1;HPM_P2
2022/02/21 00:01:11;;;;;;;1.58;0.40;;;29.00;99.90;;;;;;5022330;28;20029;-66
2022/02/21 00:03:39;;;;;;;1.88;0.30;;;28.90;99.90;;;;;;5029755;28;20052;-66
2022/02/21 00:06:06;;;;;;;4.82;0.90;;;28.90;99.90;;;;;;5014881;28;20433;-66
2022/02/21 00:08:35;;;;;;;5.22;0.30;;;28.90;99.90;;;;;;5025803;28;20057;-65
2022/02/21 00:11:02;;;;;;;2.30;0.13;;;28.80;99.60;;;;;;5015496;28;20022;-66
2022/02/21 00:13:30;;;;;;;1.77;0.63;;;28.80;98.90;;;;;;5014709;28;20440;-65
2022/02/21 00:16:01;;;;;;;1.20;0.20;;;28.90;99.40;;;;;;5000924;28;20553;-66
2022/02/21 00:18:28;;;;;;;2.05;0.47;;;29.00;99.90;;;;;;5025299;28;20048;-65
2022/02/21 00:20:56;;;;;;;2.70;0.32;;;28.90;99.00;;;;;;5004384;28;20786;-66
2022/02/21 00:23:24;;;;;;;2.17;0.63;;;29.20;98.80;;;;;;5028855;28;20104;-65
2022/02/21 00:25:51;;;;;;;1.42;0.20;;;29.50;98.80;;;;;;5030522;28;20416;-67
2022/02/21 00:28:19;;;;;;;0.63;0.20;;;29.80;98.90;;;;;;5013556;28;20025;-67
2022/02/21 00:30:47;;;;;;;1.58;0.15;;;29.60;98.60;;;;;;5015031;28;20465;-65
2022/02/21 00:33:17;;;;;;;2.47;0.32;;;29.80;98.20;;;;;;5032307;28;20029;-66
2022/02/21 00:35:45;;;;;;;1.75;0.20;;;29.80;99.20;;;;;;5028484;28;20112;-66
2022/02/21 00:38:12;;;;;;;2.08;0.20;;;29.70;98.50;;;;;;5032594;28;20096;-65
2022/02/21 00:40:40;;;;;;;1.63;0.38;;;29.50;98.20;;;;;;5032131;28;20470;-66
2022/02/21 00:43:11;;;;;;;0.73;0.28;;;29.70;98.30;;;;;;5028384;28;20065;-66
2022/02/21 00:45:38;;;;;;;1.27;0.20;;;29.70;98.10;;;;;;5015338;28;20037;-67
2022/02/21 00:48:06;;;;;;;0.98;0.20;;;29.60;99.00;;;;;;5026984;28;20482;-67
2022/02/21 00:50:33;;;;;;;0.80;0.30;;;29.70;99.90;;;;;;5032030;28;20049;-66
2022/02/21 00:53:01;;;;;;;1.02;0.30;;;29.70;97.90;;;;;;5012863;28;20535;-66
2022/02/21 00:55:30;;;;;;;0.70;0.30;;;29.60;98.00;;;;;;5030698;28;20076;-65
2022/02/21 00:57:58;;;;;;;1.52;0.20;;;29.90;99.00;;;;;;5036510;28;20021;-66
2022/02/21 01:00:25;;;;;;;2.20;0.35;;;30.00;98.30;;;;;;5032973;28;20021;-67
2022/02/21 01:02:52;;;;;;;2.22;0.50;;;29.90;97.40;;;;;;5019422;28;20037;-66
2022/02/21 01:05:20;;;;;;;2.92;0.40;;;29.90;97.40;;;;;;5019678;28;20508;-66
2022/02/21 01:07:47;;;;;;;1.50;0.20;;;30.10;98.00;;;;;;5030657;28;20018;-66
2022/02/21 01:10:14;;;;;;;2.40;0.20;;;30.30;98.30;;;;;;5031906;28;20025;-66
2022/02/21 01:12:42;;;;;;;1.98;0.50;;;30.40;98.20;;;;;;5031288;28;20029;-66
2022/02/21 01:15:12;;;;;;;0.30;0.10;;;30.30;97.70;;;;;;5034899;28;20076;-66
2022/02/21 01:17:39;;;;;;;0.60;0.20;;;30.20;98.60;;;;;;5027361;28;20028;-66
2022/02/21 01:20:07;;;;;;;2.70;0.40;;;30.00;97.50;;;;;;5047644;28;20485;-66
2022/02/21 01:22:35;;;;;;;1.42;0.20;;;29.90;98.30;;;;;;5043279;28;20034;-66
2022/02/21 01:25:03;;;;;;;1.13;0.30;;;30.00;97.60;;;;;;5029260;28;20025;-66
2022/02/21 01:27:30;;;;;;;1.92;0.30;;;30.00;98.80;;;;;;5035151;28;20025;-66
2022/02/21 01:29:58;;;;;;;2.83;0.20;;;30.20;99.90;;;;;;5034652;28;20029;-66
2022/02/21 01:32:25;;;;;;;1.88;0.20;;;30.30;99.90;;;;;;5032723;28;20028;-67
2022/02/21 01:34:52;;;;;;;3.72;0.68;;;30.40;98.70;;;;;;5035084;28;20026;-66
2022/02/21 01:37:19;;;;;;;2.45;0.77;;;30.40;98.40;;;;;;5034399;28;20029;-67
2022/02/21 01:39:47;;;;;;;3.03;0.55;;;30.50;99.90;;;;;;5027732;28;20670;-67
2022/02/21 01:42:14;;;;;;;2.47;0.50;;;30.60;98.60;;;;;;5032224;28;20044;-66
2022/02/21 01:44:49;;;;;;;3.28;0.60;;;30.80;99.40;;;;;;5034221;28;20018;-66
2022/02/21 01:47:23;;;;;;;3.55;0.65;;;30.90;99.20;;;;;;5035572;28;20025;-67
2022/02/21 01:49:50;;;;;;;5.45;0.63;;;30.70;98.20;;;;;;5036092;28;20033;-66
2022/02/21 01:52:19;;;;;;;4.80;0.55;;;30.80;98.90;;;;;;5044005;28;20143;-67
2022/02/21 01:54:47;;;;;;;10.20;1.90;;;30.90;98.00;;;;;;5036297;28;20045;-68
2022/02/21 01:57:14;;;;;;;4.93;0.70;;;31.20;98.50;;;;;;5013568;28;20026;-67
2022/02/21 01:59:42;;;;;;;3.17;0.50;;;31.50;98.60;;;;;;5022908;28;20025;-68
2022/02/21 02:02:10;;;;;;;1.83;0.50;;;31.40;99.30;;;;;;5029766;28;20045;-68
2022/02/21 02:04:38;;;;;;;3.10;0.60;;;31.20;98.10;;;;;;5031457;28;20051;-67
2022/02/21 02:07:06;;;;;;;5.90;0.70;;;30.70;98.30;;;;;;5013317;28;20063;-67
2022/02/21 02:09:36;;;;;;;1.73;0.40;;;30.50;98.80;;;;;;5020782;28;20033;-67
2022/02/21 02:12:08;;;;;;;7.18;0.70;;;30.10;98.80;;;;;;5033978;28;20051;-68
2022/02/21 02:14:43;;;;;;;2.38;0.38;;;29.90;99.00;;;;;;5034216;28;20026;-67
2022/02/21 02:17:17;;;;;;;5.57;0.80;;;29.90;99.40;;;;;;5029882;28;20022;-67
2022/02/21 02:19:47;;;;;;;2.22;0.47;;;29.70;99.70;;;;;;5024570;28;20018;-68
2022/02/21 02:22:16;;;;;;;3.85;0.40;;;29.80;99.00;;;;;;5027322;28;20393;-67
2022/02/21 02:24:46;;;;;;;8.77;1.27;;;29.80;99.70;;;;;;5014170;28;20033;-68
2022/02/21 02:27:19;;;;;;;3.60;0.60;;;29.50;99.80;;;;;;5032416;28;20112;-67
2022/02/21 02:29:54;;;;;;;4.95;1.00;;;29.20;99.90;;;;;;5030321;28;20108;-67
2022/02/21 02:32:23;;;;;;;6.38;0.98;;;29.00;99.90;;;;;;5028375;28;20021;-68
2022/02/21 02:34:52;;;;;;;5.20;0.80;;;29.10;99.90;;;;;;5008300;28;20025;-67
2022/02/21 02:37:24;;;;;;;5.32;0.40;;;29.00;99.90;;;;;;5022987;28;20029;-67
2022/02/21 02:39:53;;;;;;;3.55;0.68;;;28.80;99.90;;;;;;5031904;28;20025;-68
2022/02/21 02:42:24;;;;;;;7.82;0.52;;;28.70;99.90;;;;;;5029316;28;20481;-68
2022/02/21 02:44:51;;;;;;;5.43;1.40;;;28.60;99.90;;;;;;5039233;28;20094;-67
2022/02/21 02:47:19;;;;;;;4.25;0.70;;;28.60;99.90;;;;;;4998268;28;20519;-67
2022/02/21 02:49:46;;;;;;;1.75;0.50;;;28.60;99.90;;;;;;5032413;28;20029;-68
2022/02/21 02:52:13;;;;;;;4.70;0.70;;;28.30;99.90;;;;;;5016923;28;20052;-67
2022/02/21 02:54:41;;;;;;;5.90;1.10;;;28.20;99.90;;;;;;5034063;28;20050;-68
2022/02/21 02:57:08;;;;;;;6.30;1.30;;;28.10;99.90;;;;;;5031434;28;20021;-67
2022/02/21 02:59:35;;;;;;;5.68;1.13;;;28.00;99.90;;;;;;5020759;28;20030;-67
2022/02/21 03:02:03;;;;;;;6.03;1.05;;;28.00;99.90;;;;;;5022458;28;20030;-67
2022/02/21 03:04:30;;;;;;;10.00;1.58;;;28.20;99.90;;;;;;5034927;28;20056;-67
2022/02/21 03:07:00;;;;;;;10.25;1.48;;;28.20;99.90;;;;;;5016754;28;20053;-67
2022/02/21 03:09:28;;;;;;;10.80;2.70;;;28.20;99.90;;;;;;5034334;28;20037;-67
2022/02/21 03:11:55;;;;;;;13.55;3.33;;;28.20;99.90;;;;;;5035119;28;20107;-67
2022/02/21 03:14:24;;;;;;;15.57;3.50;;;28.20;99.90;;;;;;5031540;28;20135;-67
2022/02/21 03:16:51;;;;;;;15.23;3.60;;;28.10;99.90;;;;;;5034189;28;20363;-68
2022/02/21 03:19:19;;;;;;;13.15;3.33;;;28.20;99.90;;;;;;5020069;28;20108;-68
2022/02/21 03:21:47;;;;;;;16.83;3.60;;;28.10;99.90;;;;;;5030425;28;20038;-68
2022/02/21 03:24:15;;;;;;;15.07;3.53;;;28.20;99.90;;;;;;5030987;28;20069;-69
2022/02/21 03:26:42;;;;;;;18.73;3.92;;;28.30;99.90;;;;;;5014426;28;20084;-68
2022/02/21 03:29:09;;;;;;;20.52;4.30;;;28.40;99.90;;;;;;4997140;28;20069;-68
2022/02/21 03:31:37;;;;;;;15.48;3.42;;;28.20;99.90;;;;;;5031968;28;20021;-68
2022/02/21 03:34:04;;;;;;;18.45;3.90;;;27.90;99.90;;;;;;5029388;28;20557;-68
2022/02/21 03:36:32;;;;;;;20.55;4.22;;;28.00;99.90;;;;;;5027953;28;20033;-68
2022/02/21 03:38:59;;;;;;;18.13;4.10;;;28.20;99.90;;;;;;5020485;28;20025;-68
2022/02/21 03:41:27;;;;;;;22.23;5.10;;;28.10;99.90;;;;;;5029314;28;20037;-68
2022/02/21 03:43:54;;;;;;;16.02;3.90;;;28.30;99.90;;;;;;5019864;28;20478;-68
2022/02/21 03:46:21;;;;;;;17.35;3.17;;;28.40;99.90;;;;;;5030460;28;20021;-68
2022/02/21 03:48:49;;;;;;;17.65;4.13;;;28.20;99.90;;;;;;5031037;28;20021;-68
2022/02/21 03:51:16;;;;;;;23.98;3.40;;;28.00;99.90;;;;;;5027060;28;20026;-67
2022/02/21 03:53:43;;;;;;;18.40;3.10;;;27.80;99.90;;;;;;5032178;28;20083;-68
2022/02/21 03:56:10;;;;;;;18.52;3.45;;;27.80;99.90;;;;;;5014343;28;20038;-68
2022/02/21 03:58:38;;;;;;;15.85;2.75;;;27.90;99.90;;;;;;5028549;28;20566;-68
2022/02/21 04:01:05;;;;;;;10.88;2.33;;;28.00;99.90;;;;;;5031984;28;20075;-68
2022/02/21 04:03:32;;;;;;;16.88;3.97;;;28.00;99.90;;;;;;5007625;28;20036;-68
2022/02/21 04:08:53;;;;;;;15.20;3.20;;;27.80;99.90;;;;;;5020522;28;20022;-68
2022/02/21 04:11:21;;;;;;;13.48;2.65;;;27.80;99.90;;;;;;5029935;28;20026;-68
2022/02/21 04:13:48;;;;;;;12.32;2.90;;;27.60;99.90;;;;;;5032183;28;20032;-68
2022/02/21 04:16:16;;;;;;;9.55;2.50;;;27.80;99.90;;;;;;5034419;28;20097;-68
2022/02/21 04:18:44;;;;;;;14.38;2.53;;;28.00;99.90;;;;;;5031919;28;20101;-68
2022/02/21 04:21:12;;;;;;;18.25;4.18;;;27.90;99.90;;;;;;5032019;28;20025;-68
2022/02/21 04:23:39;;;;;;;15.82;3.13;;;28.00;99.90;;;;;;5031601;28;20036;-68
2022/02/21 04:26:35;;;;;;;11.20;2.55;;;28.10;99.90;;;;;;5023295;28;20021;-67
2022/02/21 04:29:03;;;;;;;14.45;2.65;;;27.60;99.90;;;;;;5027001;28;20038;-68
2022/02/21 04:31:31;;;;;;;19.55;3.20;;;27.60;99.90;;;;;;5020280;28;20033;-68
2022/02/21 04:33:58;;;;;;;14.32;2.53;;;27.60;99.90;;;;;;5031179;28;20022;-67
2022/02/21 04:36:26;;;;;;;14.40;3.10;;;27.50;99.90;;;;;;5026713;28;20049;-68
2022/02/21 04:38:54;;;;;;;15.55;3.67;;;27.60;99.90;;;;;;5025565;28;20107;-68
2022/02/21 04:41:22;;;;;;;14.07;2.92;;;27.50;99.90;;;;;;5012464;28;20031;-68
2022/02/21 04:43:49;;;;;;;11.88;2.78;;;27.50;99.90;;;;;;5025015;28;20021;-67
2022/02/21 04:46:17;;;;;;;16.10;3.28;;;27.60;99.90;;;;;;5030713;28;20041;-67
2022/02/21 04:48:45;;;;;;;11.00;2.88;;;27.70;99.90;;;;;;5035254;28;20127;-67
2022/02/21 04:51:14;;;;;;;14.93;2.38;;;27.40;99.90;;;;;;5035539;28;20029;-67
2022/02/21 04:53:41;;;;;;;20.20;3.47;;;27.50;99.90;;;;;;5035312;28;20083;-67
2022/02/21 04:56:10;;;;;;;9.85;1.98;;;27.40;99.90;;;;;;5034385;28;20065;-67
2022/02/21 04:58:38;;;;;;;17.30;3.90;;;27.40;99.90;;;;;;5035600;28;20025;-67
2022/02/21 05:01:07;;;;;;;18.25;3.38;;;27.40;99.90;;;;;;5034398;28;20028;-67
2022/02/21 05:03:34;;;;;;;16.75;3.05;;;27.60;99.90;;;;;;5034894;28;20474;-67
2022/02/21 05:06:02;;;;;;;15.55;2.47;;;27.80;99.90;;;;;;5031997;28;20049;-67
2022/02/21 05:08:33;;;;;;;9.65;2.05;;;27.80;99.90;;;;;;5032861;28;20033;-67
2022/02/21 05:11:01;;;;;;;24.20;3.53;;;27.70;99.90;;;;;;5051860;28;20025;-67
2022/02/21 05:13:29;;;;;;;17.05;2.63;;;27.60;99.90;;;;;;5054241;28;20052;-67
2022/02/21 05:15:57;;;;;;;18.92;4.60;;;27.50;99.90;;;;;;5038247;28;20433;-68
2022/02/21 05:18:25;;;;;;;15.43;3.05;;;27.70;99.90;;;;;;5034944;28;20079;-68
2022/02/21 05:20:53;;;;;;;16.83;3.28;;;27.60;99.90;;;;;;5036030;28;20389;-68
2022/02/21 05:23:21;;;;;;;18.50;3.40;;;27.40;99.90;;;;;;5035037;28;20048;-68
2022/02/21 05:25:48;;;;;;;18.65;3.30;;;27.40;99.90;;;;;;5031933;28;20084;-67
2022/02/21 05:28:16;;;;;;;20.95;3.72;;;26.90;99.90;;;;;;5032562;28;20442;-67
2022/02/21 05:30:44;;;;;;;13.48;3.63;;;26.80;99.90;;;;;;5032812;28;20029;-68
2022/02/21 05:33:13;;;;;;;22.45;4.35;;;26.80;99.90;;;;;;5030762;28;20087;-68
2022/02/21 05:35:40;;;;;;;18.75;4.70;;;26.80;99.90;;;;;;5029314;28;20495;-67
2022/02/21 05:38:08;;;;;;;16.40;3.75;;;26.70;99.90;;;;;;5032841;28;20083;-68
2022/02/21 05:40:36;;;;;;;18.40;3.28;;;26.60;99.90;;;;;;5032146;28;20029;-68
2022/02/21 05:43:03;;;;;;;17.40;4.47;;;26.40;99.90;;;;;;5032389;28;20083;-66
2022/02/21 05:45:31;;;;;;;24.55;5.35;;;26.30;99.90;;;;;;5034797;28;20020;-65
2022/02/21 05:47:58;;;;;;;22.95;4.65;;;26.30;99.90;;;;;;5035946;28;20497;-65
2022/02/21 05:50:26;;;;;;;20.27;5.18;;;26.30;99.90;;;;;;5013871;28;20037;-65
2022/02/21 05:52:53;;;;;;;21.33;4.82;;;26.20;99.90;;;;;;5028465;28;20025;-65
2022/02/21 05:55:22;;;;;;;19.30;3.88;;;26.20;99.90;;;;;;5036798;28;20049;-65
2022/02/21 05:57:50;;;;;;;20.05;3.92;;;26.30;99.90;;;;;;5019544;28;20033;-65
2022/02/21 06:00:18;;;;;;;20.17;4.53;;;26.20;99.90;;;;;;5035984;28;20545;-64
2022/02/21 06:02:45;;;;;;;17.88;4.15;;;26.30;99.90;;;;;;5020271;28;20033;-65
2022/02/21 06:05:13;;;;;;;24.92;4.95;;;26.20;99.90;;;;;;5033907;28;20521;-64
2022/02/21 06:07:40;;;;;;;20.38;4.50;;;26.20;99.90;;;;;;5035746;28;20439;-65
2022/02/21 06:10:08;;;;;;;22.00;4.45;;;26.10;99.90;;;;;;5025890;28;20113;-65
2022/02/21 06:12:36;;;;;;;22.88;4.18;;;25.90;99.90;;;;;;5029621;28;20029;-64
2022/02/21 06:15:04;;;;;;;23.42;4.15;;;25.80;99.90;;;;;;5015492;28;20017;-65
2022/02/21 06:17:32;;;;;;;22.17;4.32;;;25.80;99.90;;;;;;5030675;28;20028;-65
2022/02/21 06:20:00;;;;;;;24.20;4.60;;;25.80;99.90;;;;;;5023996;28;20022;-65
2022/02/21 06:22:27;;;;;;;23.05;4.47;;;25.60;99.90;;;;;;5016076;28;20889;-65
2022/02/21 06:24:54;;;;;;;22.45;3.90;;;25.50;99.90;;;;;;5036730;28;20036;-65
2022/02/21 06:27:22;;;;;;;28.23;4.47;;;25.40;99.90;;;;;;5037335;28;20021;-65
2022/02/21 06:29:49;;;;;;;24.52;4.55;;;25.40;99.90;;;;;;5034857;28;20081;-65
2022/02/21 06:32:17;;;;;;;24.80;5.25;;;25.30;99.90;;;;;;5039204;28;20051;-65
2022/02/21 06:34:48;;;;;;;28.15;5.93;;;25.40;99.90;;;;;;5040064;28;20021;-65
2022/02/21 06:37:16;;;;;;;20.30;4.30;;;25.40;99.90;;;;;;5039250;28;20041;-66
2022/02/21 06:39:43;;;;;;;26.67;5.05;;;25.30;99.90;;;;;;5035000;28;20027;-65
2022/02/21 06:42:11;;;;;;;21.80;5.05;;;25.20;99.90;;;;;;5035113;28;20041;-65
2022/02/21 06:44:38;;;;;;;26.67;5.22;;;25.20;99.90;;;;;;5036091;28;20091;-65
2022/02/21 06:47:07;;;;;;;31.63;6.82;;;25.20;99.90;;;;;;5035874;28;20029;-65
2022/02/21 06:49:35;;;;;;;26.70;5.90;;;25.20;99.90;;;;;;5018675;28;20076;-65
2022/02/21 06:52:03;;;;;;;26.30;6.40;;;25.10;99.90;;;;;;5035127;28;20033;-65
2022/02/21 06:54:31;;;;;;;23.88;5.15;;;25.10;99.90;;;;;;5034571;28;20542;-65
2022/02/21 06:56:58;;;;;;;29.67;6.28;;;25.00;99.90;;;;;;5017460;28;20083;-65
2022/02/21 06:59:26;;;;;;;24.00;6.05;;;25.00;99.90;;;;;;5035898;28;20021;-65
2022/02/21 07:01:53;;;;;;;24.42;5.95;;;24.90;99.90;;;;;;5034388;28;20040;-65
2022/02/21 07:04:21;;;;;;;31.92;5.68;;;25.00;99.90;;;;;;5017926;28;20470;-65
2022/02/21 07:06:48;;;;;;;26.27;4.72;;;24.90;99.90;;;;;;5032613;28;20379;-65
2022/02/21 07:09:16;;;;;;;24.08;4.97;;;24.70;99.90;;;;;;5032813;28;20145;-65
2022/02/21 07:11:44;;;;;;;31.30;6.32;;;24.50;99.90;;;;;;5033460;28;20053;-65
2022/02/21 07:14:11;;;;;;;24.02;5.90;;;24.40;99.90;;;;;;5035414;28;20359;-65
2022/02/21 07:16:39;;;;;;;23.13;6.22;;;24.30;99.90;;;;;;5028931;28;20053;-65
2022/02/21 07:19:06;;;;;;;25.88;7.13;;;24.20;99.90;;;;;;5024372;28;20052;-65
2022/02/21 07:21:34;;;;;;;27.63;5.75;;;24.20;99.90;;;;;;5042925;28;20029;-65
2022/02/21 07:24:02;;;;;;;44.45;6.15;;;24.20;99.90;;;;;;5027188;28;20030;-64
2022/02/21 07:26:29;;;;;;;24.42;4.93;;;24.20;99.90;;;;;;5042593;28;20085;-64
2022/02/21 07:28:56;;;;;;;20.40;4.80;;;24.10;99.90;;;;;;5027690;28;20030;-65
2022/02/21 07:31:24;;;;;;;28.35;5.38;;;24.10;99.90;;;;;;5033298;28;20109;-64
2022/02/21 07:33:51;;;;;;;31.83;6.32;;;24.20;99.90;;;;;;5043973;28;20017;-65
2022/02/21 07:36:18;;;;;;;35.40;6.13;;;24.10;99.90;;;;;;5033244;28;20104;-65
2022/02/21 07:38:46;;;;;;;30.00;5.53;;;24.00;99.90;;;;;;5045018;28;20025;-64
2022/02/21 07:41:13;;;;;;;25.20;6.53;;;23.90;99.90;;;;;;5045230;28;20029;-64
2022/02/21 07:43:41;;;;;;;38.38;6.40;;;23.90;99.90;;;;;;5047781;28;20014;-64
2022/02/21 07:46:09;;;;;;;31.90;7.18;;;23.70;99.90;;;;;;5047803;28;20032;-65
2022/02/21 07:48:37;;;;;;;36.53;6.55;;;23.60;99.90;;;;;;5047934;28;20025;-65
2022/02/21 07:51:05;;;;;;;31.48;6.45;;;23.60;99.90;;;;;;5051655;28;20092;-65
2022/02/21 07:53:32;;;;;;;33.55;6.75;;;23.60;99.90;;;;;;5048884;28;20048;-66
2022/02/21 07:55:59;;;;;;;37.10;6.78;;;23.50;99.90;;;;;;5051433;28;20029;-64
2022/02/21 07:58:27;;;;;;;35.15;7.47;;;23.40;99.90;;;;;;5051137;28;20037;-65
2022/02/21 08:00:54;;;;;;;35.13;6.35;;;23.30;99.90;;;;;;5051706;28;20108;-65
2022/02/21 08:03:22;;;;;;;35.22;7.10;;;23.30;99.90;;;;;;5050329;28;20029;-65
2022/02/21 08:05:49;;;;;;;31.45;7.70;;;23.30;99.90;;;;;;5046817;28;20029;-65
2022/02/21 08:08:16;;;;;;;29.50;6.80;;;23.40;99.90;;;;;;5049004;28;20021;-65
2022/02/21 08:10:44;;;;;;;24.98;7.13;;;23.20;99.90;;;;;;5050438;28;20021;-65
2022/02/21 08:13:11;;;;;;;30.95;6.28;;;23.20;99.90;;;;;;5052643;28;20029;-65
2022/02/21 08:15:39;;;;;;;23.80;6.45;;;23.30;99.90;;;;;;5052202;28;20016;-64
2022/02/21 08:18:06;;;;;;;34.78;8.07;;;23.20;99.90;;;;;;5050343;28;20072;-64
2022/02/21 08:20:33;;;;;;;26.42;6.55;;;23.20;99.90;;;;;;5053067;28;20033;-64
2022/02/21 08:23:01;;;;;;;33.67;6.22;;;23.20;99.90;;;;;;5050602;28;20089;-64
2022/02/21 08:25:28;;;;;;;30.98;6.60;;;23.20;99.90;;;;;;5043893;28;20036;-64
2022/02/21 08:27:56;;;;;;;31.20;6.72;;;23.10;99.90;;;;;;5052750;28;20038;-64
2022/02/21 08:30:25;;;;;;;28.23;6.63;;;23.10;99.90;;;;;;5052803;28;20067;-65
2022/02/21 08:32:52;;;;;;;26.35;6.85;;;23.10;99.90;;;;;;5054658;28;20013;-65
2022/02/21 08:35:20;;;;;;;30.73;7.28;;;23.00;99.90;;;;;;5054162;28;20014;-64
2022/02/21 08:37:48;;;;;;;34.83;8.38;;;23.10;99.90;;;;;;5052311;28;20393;-64
2022/02/21 08:40:18;;;;;;;37.83;6.75;;;23.10;99.90;;;;;;5046851;28;20044;-64
2022/02/21 08:42:46;;;;;;;39.92;7.88;;;23.00;99.90;;;;;;5052141;28;20092;-64
2022/02/21 08:45:14;;;;;;;36.85;7.22;;;23.00;99.90;;;;;;5056669;28;20082;-64
2022/02/21 08:47:42;;;;;;;32.53;8.15;;;23.00;99.90;;;;;;5057951;28;20070;-64
2022/02/21 08:50:11;;;;;;;32.22;9.23;;;23.00;99.90;;;;;;5057962;28;20032;-64
2022/02/21 08:52:42;;;;;;;33.38;7.78;;;23.00;99.90;;;;;;5057076;28;20013;-64
2022/02/21 08:55:15;;;;;;;29.98;6.75;;;23.00;99.90;;;;;;5056702;28;20049;-64
2022/02/21 08:57:44;;;;;;;30.58;7.88;;;22.90;99.90;;;;;;5041736;28;20045;-65
2022/02/21 09:00:14;;;;;;;33.72;7.43;;;23.00;99.90;;;;;;5051700;28;20026;-65
2022/02/21 09:02:44;;;;;;;30.15;7.35;;;23.00;99.90;;;;;;5047578;28;20045;-65
2022/02/21 09:05:12;;;;;;;33.83;7.82;;;23.00;99.90;;;;;;5056457;28;20030;-64
2022/02/21 09:07:40;;;;;;;26.92;7.03;;;22.90;99.90;;;;;;5055935;28;20022;-64
2022/02/21 09:10:08;;;;;;;33.17;7.07;;;23.00;99.90;;;;;;5043500;28;20026;-65
2022/02/21 09:12:36;;;;;;;38.97;8.60;;;23.00;99.90;;;;;;5055346;28;20054;-64
2022/02/21 09:15:03;;;;;;;29.27;7.85;;;23.00;99.90;;;;;;5054832;28;20568;-64
2022/02/21 09:17:31;;;;;;;27.13;8.00;;;22.90;99.90;;;;;;5054362;28;20017;-64
2022/02/21 09:19:59;;;;;;;39.50;8.32;;;22.90;99.90;;;;;;5044261;28;20664;-65
2022/02/21 09:22:27;;;;;;;31.13;7.90;;;22.90;99.90;;;;;;5052998;28;20017;-65
2022/02/21 09:24:55;;;;;;;31.00;8.50;;;22.90;99.90;;;;;;5054601;28;20080;-64
2022/02/21 09:27:22;;;;;;;32.58;6.95;;;22.80;99.90;;;;;;5054191;28;20048;-64
2022/02/21 09:29:49;;;;;;;32.17;8.27;;;22.90;99.90;;;;;;5042523;28;20033;-64
2022/02/21 09:32:17;;;;;;;31.63;8.02;;;22.90;99.90;;;;;;5052585;28;20022;-65
2022/02/21 09:34:44;;;;;;;24.52;6.32;;;22.90;99.90;;;;;;5047539;28;20028;-64
2022/02/21 09:37:12;;;;;;;30.38;7.00;;;22.90;99.90;;;;;;5052773;28;20089;-64
2022/02/21 09:39:39;;;;;;;26.73;7.38;;;22.90;99.90;;;;;;5052525;28;20067;-65
2022/02/21 09:42:07;;;;;;;28.02;6.55;;;22.90;99.90;;;;;;5052093;28;20026;-64
2022/02/21 09:44:34;;;;;;;31.08;7.70;;;23.00;99.90;;;;;;5050894;28;20371;-64
2022/02/21 09:47:03;;;;;;;25.23;6.50;;;23.00;99.90;;;;;;5050096;28;20041;-65
2022/02/21 09:49:30;;;;;;;29.80;7.00;;;22.90;99.90;;;;;;5048707;28;20071;-64
2022/02/21 09:51:58;;;;;;;35.15;7.30;;;22.90;99.90;;;;;;5045614;28;20057;-64
2022/02/21 09:54:26;;;;;;;25.33;6.05;;;23.00;99.90;;;;;;5039667;28;20041;-65
2022/02/21 09:56:55;;;;;;;26.10;7.00;;;23.00;99.90;;;;;;5046565;28;20036;-65
2022/02/21 09:59:23;;;;;;;28.00;6.65;;;23.00;99.90;;;;;;5047239;28;20108;-65
2022/02/21 10:01:51;;;;;;;29.17;6.13;;;23.00;99.90;;;;;;5045176;28;20025;-63
2022/02/21 10:07:28;;;;;;;25.98;6.95;;;23.00;99.90;;;;;;4980026;28;20518;-64
2022/02/21 10:09:59;;;;;;;33.17;6.68;;;23.00;99.90;;;;;;4984295;28;20063;-64
2022/02/21 10:12:28;;;;;;;30.25;6.82;;;23.00;99.90;;;;;;5021398;28;20398;-64
2022/02/21 10:14:55;;;;;;;34.67;6.78;;;23.00;99.90;;;;;;5042294;28;20017;-65
2022/02/21 10:17:26;;;;;;;24.00;6.38;;;23.00;99.90;;;;;;5027941;28;20118;-64
2022/02/21 10:20:05;;;;;;;28.27;6.70;;;23.10;99.90;;;;;;5043502;28;20032;-64
2022/02/21 10:22:33;;;;;;;27.83;6.95;;;23.00;99.90;;;;;;5043047;28;20024;-64
2022/02/21 10:25:01;;;;;;;27.27;6.30;;;23.00;99.90;;;;;;5042101;28;20375;-64
2022/02/21 10:27:31;;;;;;;33.67;7.10;;;23.00;99.90;;;;;;5038950;28;20036;-65
2022/02/21 10:30:02;;;;;;;28.40;7.10;;;23.00;99.90;;;;;;5035540;28;20494;-64
2022/02/21 10:32:35;;;;;;;30.58;7.05;;;23.00;99.90;;;;;;5023594;28;20026;-64
2022/02/21 10:35:20;;;;;;;42.40;7.68;;;23.00;99.90;;;;;;5039863;28;20018;-65
2022/02/21 10:37:50;;;;;;;23.58;6.70;;;23.00;99.90;;;;;;5042840;28;20025;-65
2022/02/21 10:40:25;;;;;;;28.60;7.10;;;23.10;99.90;;;;;;5036441;28;20057;-65
2022/02/21 10:43:14;;;;;;;25.48;6.55;;;23.00;99.90;;;;;;5025029;28;20033;-67
2022/02/21 10:45:43;;;;;;;26.25;6.57;;;23.00;99.90;;;;;;5014777;28;20051;-67
2022/02/21 10:48:11;;;;;;;29.85;6.35;;;23.00;99.90;;;;;;5034725;28;20063;-65
2022/02/21 10:50:57;;;;;;;30.35;6.43;;;23.00;99.90;;;;;;5024667;28;20064;-65
2022/02/21 10:53:36;;;;;;;36.33;7.85;;;23.00;99.90;;;;;;5032127;28;20022;-65
2022/02/21 10:56:03;;;;;;;34.72;6.18;;;23.00;99.90;;;;;;5031302;28;20033;-65
2022/02/21 10:58:30;;;;;;;24.17;5.95;;;23.00;99.90;;;;;;5031137;28;20029;-66
2022/02/21 11:01:00;;;;;;;31.45;6.20;;;23.00;99.90;;;;;;5033671;28;20113;-66
2022/02/21 11:03:29;;;;;;;30.83;6.65;;;23.10;99.90;;;;;;5026026;28;20029;-66
2022/02/21 11:06:02;;;;;;;23.10;5.75;;;23.10;99.90;;;;;;5020881;28;20033;-66
2022/02/21 11:08:31;;;;;;;27.25;6.07;;;23.10;99.90;;;;;;5030041;28;20043;-66
2022/02/21 11:11:04;;;;;;;39.67;8.80;;;23.00;99.90;;;;;;5022537;28;20026;-67
2022/02/21 11:13:34;;;;;;;29.42;6.72;;;23.10;99.90;;;;;;5007954;28;20028;-66
2022/02/21 11:16:03;;;;;;;34.15;6.47;;;23.10;99.90;;;;;;5014818;28;20032;-67
2022/02/21 11:18:30;;;;;;;32.78;7.32;;;23.10;99.90;;;;;;5030957;28;20028;-67
2022/02/21 11:20:58;;;;;;;31.70;6.75;;;23.10;99.90;;;;;;5032681;28;20035;-67
2022/02/21 11:23:28;;;;;;;26.58;6.72;;;23.10;99.90;;;;;;5015640;28;20134;-67
2022/02/21 11:26:22;;;;;;;36.10;7.03;;;23.10;99.90;;;;;;5033523;28;20056;-67
2022/02/21 11:28:58;;;;;;;30.48;7.18;;;23.00;99.90;;;;;;5032412;28;20553;-67
2022/02/21 11:31:34;;;;;;;27.98;6.25;;;23.00;99.90;;;;;;5033433;28;20488;-67
2022/02/21 11:34:06;;;;;;;29.88;6.88;;;23.00;99.90;;;;;;5033462;28;20026;-67
2022/02/21 11:36:35;;;;;;;31.52;6.80;;;23.00;99.90;;;;;;5011405;28;20025;-67
2022/02/21 11:39:20;;;;;;;29.30;7.07;;;23.00;99.90;;;;;;5012569;28;20067;-67
2022/02/21 11:42:05;;;;;;;24.90;7.05;;;23.00;99.90;;;;;;5032317;28;20825;-66
2022/02/21 11:44:54;;;;;;;33.72;7.38;;;23.00;99.90;;;;;;5027874;28;20022;-67
2022/02/21 11:47:36;;;;;;;31.08;6.43;;;23.00;99.90;;;;;;5015999;28;20056;-66
2022/02/21 11:50:08;;;;;;;25.83;6.45;;;23.10;99.90;;;;;;5027200;28;20540;-67
2022/02/21 11:52:40;;;;;;;34.50;7.68;;;23.10;99.90;;;;;;5032979;28;20091;-67
2022/02/21 11:55:40;;;;;;;29.65;7.40;;;23.00;99.90;;;;;;5030938;28;20049;-67
2022/02/21 11:58:16;;;;;;;33.72;7.13;;;23.10;99.90;;;;;;5031002;28;20418;-67
2022/02/21 12:00:45;;;;;;;34.15;6.35;;;23.00;99.90;;;;;;5032150;28;20023;-67
2022/02/21 12:03:19;;;;;;;25.42;6.60;;;23.00;99.90;;;;;;5030293;28;20033;-67
2022/02/21 12:05:48;;;;;;;36.60;7.32;;;23.00;99.90;;;;;;5033190;28;20108;-67
2022/02/21 12:08:38;;;;;;;29.98;5.30;;;23.00;99.90;;;;;;5033257;28;20532;-67
2022/02/21 12:11:15;;;;;;;29.95;6.70;;;23.00;99.90;;;;;;5032652;28;20105;-67
2022/02/21 12:13:51;;;;;;;31.13;7.65;;;23.00;99.90;;;;;;5033281;28;20064;-66
2022/02/21 12:16:22;;;;;;;33.08;8.55;;;23.00;99.90;;;;;;5032525;28;20025;-67
2022/02/21 12:19:02;;;;;;;34.15;7.97;;;23.10;99.90;;;;;;5033477;28;20037;-67
2022/02/21 12:21:30;;;;;;;31.27;6.43;;;23.10;99.90;;;;;;5032330;28;20120;-67
2022/02/21 12:24:00;;;;;;;46.25;7.57;;;23.10;99.90;;;;;;5032521;28;20029;-67
2022/02/21 12:26:28;;;;;;;34.65;7.97;;;23.10;99.90;;;;;;5032318;28;20056;-66
2022/02/21 12:29:26;;;;;;;29.92;7.50;;;23.00;99.90;;;;;;5026815;28;20432;-65
2022/02/21 12:32:05;;;;;;;27.67;7.28;;;23.10;99.90;;;;;;5019723;28;20025;-66
2022/02/21 12:34:35;;;;;;;30.70;6.65;;;23.10;99.90;;;;;;5022949;28;20033;-65
2022/02/21 12:37:04;;;;;;;30.65;6.53;;;23.10;99.90;;;;;;5034243;28;20030;-65
2022/02/21 12:39:34;;;;;;;29.05;5.88;;;23.00;99.90;;;;;;5031676;28;20026;-65
2022/02/21 12:42:01;;;;;;;31.17;6.63;;;23.00;99.90;;;;;;5033090;28;20392;-65
2022/02/21 12:44:29;;;;;;;24.20;5.45;;;23.00;99.90;;;;;;5033527;28;20022;-65
2022/02/21 12:47:00;;;;;;;31.20;6.53;;;23.00;99.90;;;;;;5032417;28;20055;-65
2022/02/21 12:49:31;;;;;;;24.17;5.57;;;23.00;99.90;;;;;;5032918;28;20028;-65
2022/02/21 12:52:06;;;;;;;33.33;5.80;;;23.00;99.90;;;;;;5032799;28;20033;-65
2022/02/21 12:54:49;;;;;;;32.95;6.85;;;23.00;99.90;;;;;;5032088;28;20115;-66